Time;durP1;ratioP1;P1;durP2;ratioP2;P2;SDS_P1;SDS_P2;PMS_P1;PMS_P2;Temp;Humidity;BMP_temperature;BMP_pressure;BME280_temperature;BME280_humidity;BME280_pressure;Samples;Min_cycle;Max_cycle;Signal;HPM_P1;HPM_P2
2022/01/28 00:02:40;;;;;;;8.60;1.50;;;;;;;7.65;67.40;101876.50;4988340;28;97629;-80
2022/01/28 00:04:59;;;;;;;8.77;1.70;;;;;;;7.66;67.09;101812.31;4985903;28;97245;-80
2022/01/28 00:07:24;;;;;;;9.20;2.60;;;;;;;7.68;67.59;101821.63;4984728;28;97164;-78
2022/01/28 00:09:49;;;;;;;7.23;1.47;;;;;;;7.70;67.14;101819.22;4972255;28;120962;-80
2022/01/28 00:12:15;;;;;;;13.33;1.90;;;;;;;7.74;67.40;101819.09;4990382;28;115555;-79
2022/01/28 00:14:52;;;;;;;9.07;1.60;;;;;;;7.74;66.95;101825.34;4972620;28;96722;-80
2022/01/28 00:38:56;;;;;;;17.00;2.17;;;;;;;7.62;66.53;101855.50;4987455;28;97636;-80
2022/01/28 00:41:21;;;;;;;13.27;2.43;;;;;;;7.55;66.76;101856.50;4964984;28;98188;-80
2022/01/28 00:43:47;;;;;;;11.93;1.80;;;;;;;7.52;66.95;101841.72;4985767;28;96696;-79
2022/01/28 00:46:12;;;;;;;14.80;2.70;;;;;;;7.56;66.87;101869.75;4966402;28;96802;-80
2022/01/28 00:48:38;;;;;;;7.10;1.67;;;;;;;7.59;67.00;101865.38;4965741;28;126226;-80
2022/01/28 00:51:03;;;;;;;7.43;1.80;;;;;;;7.59;66.43;101890.00;4968995;28;98941;-79
2022/01/28 00:53:28;;;;;;;7.13;1.80;;;;;;;7.60;66.73;101868.88;4966133;28;97249;-80
2022/01/28 00:55:54;;;;;;;11.83;2.33;;;;;;;7.66;66.30;101897.22;4974486;28;96923;-79
2022/01/28 00:58:22;;;;;;;8.10;1.83;;;;;;;7.65;66.61;101892.94;4981718;28;97495;-79
2022/01/28 01:00:47;;;;;;;14.33;1.60;;;;;;;7.63;66.51;101887.16;4967165;28;101162;-80
2022/01/28 01:03:13;;;;;;;7.13;1.70;;;;;;;7.65;66.67;101877.28;4966909;28;116113;-83
2022/01/28 01:05:39;;;;;;;7.70;2.83;;;;;;;7.68;66.78;101903.81;4971678;28;96980;-79
2022/01/28 01:08:06;;;;;;;12.00;1.83;;;;;;;7.65;66.37;101901.94;4967491;28;100277;-81
2022/01/28 01:10:32;;;;;;;3.60;1.57;;;;;;;7.73;66.43;101902.47;4989504;28;98172;-80
2022/01/28 01:12:58;;;;;;;8.60;1.70;;;;;;;7.74;66.49;101912.22;4973666;28;96669;-81
2022/01/28 01:15:29;;;;;;;23.67;2.37;;;;;;;7.72;66.63;101906.41;4966026;28;96682;-81
2022/01/28 01:18:08;;;;;;;8.50;1.53;;;;;;;7.70;66.46;101971.84;4985646;28;97945;-81
2022/01/28 01:23:15;;;;;;;9.97;1.70;;;;;;;7.73;66.44;101925.16;4991945;28;97110;-81
2022/01/28 01:25:50;;;;;;;4.90;1.67;;;;;;;7.74;66.28;101934.91;4989632;28;97445;-82
2022/01/28 01:28:19;;;;;;;6.87;2.13;;;;;;;7.75;66.28;101952.09;4967754;28;99508;-80
2022/01/28 01:30:45;;;;;;;5.83;1.60;;;;;;;7.74;66.65;101945.09;4990239;28;97176;-81
2022/01/28 01:33:11;;;;;;;8.47;1.60;;;;;;;7.73;66.35;101965.47;4986231;28;98066;-80
2022/01/28 01:35:37;;;;;;;8.33;1.60;;;;;;;7.74;66.32;101964.25;4987369;28;97125;-80
2022/01/28 01:38:05;;;;;;;9.70;1.53;;;;;;;7.73;66.53;101971.72;4989376;28;96861;-81
2022/01/28 01:40:36;;;;;;;7.80;1.43;;;;;;;7.68;66.25;101990.69;4985228;28;97143;-80
2022/01/28 01:45:53;;;;;;;17.23;2.57;;;;;;;7.60;66.66;101978.41;4987970;28;97812;-81
2022/01/28 01:53:46;;;;;;;6.73;1.90;;;;;;;7.61;66.59;101977.97;4992765;28;97322;-81
2022/01/28 01:56:12;;;;;;;10.73;1.53;;;;;;;7.64;66.42;101979.06;4972504;28;96927;-80
2022/01/28 01:58:38;;;;;;;12.17;1.60;;;;;;;7.63;66.48;101983.00;4968892;28;100600;-80
2022/01/28 02:01:03;;;;;;;10.80;1.60;;;;;;;7.64;66.36;101981.81;4976211;28;99029;-80
2022/01/28 02:03:29;;;;;;;17.83;2.13;;;;;;;7.65;66.61;101991.53;4988034;28;116063;-80
2022/01/28 02:05:59;;;;;;;11.63;1.90;;;;;;;7.69;66.38;101994.97;4989829;28;96670;-81
2022/01/28 02:08:27;;;;;;;9.23;2.00;;;;;;;7.66;66.52;101993.09;4962597;28;104953;-80
2022/01/28 02:10:57;;;;;;;8.47;1.67;;;;;;;7.64;66.50;101999.03;4969548;28;100069;-79
2022/01/28 02:13:24;;;;;;;5.50;1.47;;;;;;;7.69;66.51;102005.91;4970412;28;103163;-81
2022/01/28 02:15:51;;;;;;;12.40;1.87;;;;;;;7.66;66.41;102007.56;4966622;28;98676;-81
2022/01/28 02:18:16;;;;;;;8.23;1.80;;;;;;;7.58;66.36;102059.03;4969817;28;100135;-82
2022/01/28 02:20:44;;;;;;;8.97;1.53;;;;;;;7.61;66.42;102008.09;4968730;28;117504;-80
2022/01/28 02:23:09;;;;;;;8.30;1.90;;;;;;;7.60;66.12;102012.03;4988325;28;97125;-80
2022/01/28 02:25:34;;;;;;;18.57;3.20;;;;;;;7.58;66.29;102009.75;4987961;28;96913;-79
2022/01/28 02:28:03;;;;;;;10.00;1.70;;;;;;;7.56;66.23;102016.84;4966706;28;99466;-80
2022/01/28 02:30:29;;;;;;;15.43;2.23;;;;;;;7.51;66.21;102022.91;4979356;28;96910;-80
2022/01/28 02:33:08;;;;;;;8.63;1.47;;;;;;;7.52;66.40;102019.72;4989949;28;96808;-80
2022/01/28 02:35:34;;;;;;;7.50;1.60;;;;;;;7.51;66.13;102001.75;4966738;28;97919;-81
2022/01/28 02:37:59;;;;;;;8.13;1.70;;;;;;;7.56;66.38;102030.53;4989924;28;96972;-82
2022/01/28 02:40:25;;;;;;;10.13;1.83;;;;;;;7.51;66.10;102020.91;4971383;28;99727;-80
2022/01/28 02:43:05;;;;;;;5.63;1.43;;;;;;;7.55;65.96;102035.28;4988141;28;96737;-80
2022/01/28 02:45:34;;;;;;;11.63;2.10;;;;;;;7.55;66.26;102024.31;4988666;28;97409;-79
2022/01/28 02:48:07;;;;;;;9.67;2.10;;;;;;;7.54;65.81;102041.94;4968702;28;103519;-80
2022/01/28 02:50:43;;;;;;;11.33;1.70;;;;;;;7.48;65.83;102045.66;4983044;28;100952;-80
2022/01/28 02:53:20;;;;;;;16.73;2.20;;;;;;;7.44;65.88;102048.53;4966175;28;97138;-80
2022/01/28 02:55:45;;;;;;;7.37;2.10;;;;;;;7.41;66.04;102035.69;4971132;28;97278;-80
2022/01/28 02:58:22;;;;;;;9.20;1.53;;;;;;;7.42;66.05;102042.72;4970868;28;100188;-80
2022/01/28 03:00:48;;;;;;;7.47;2.17;;;;;;;7.45;66.04;102050.03;4985807;28;100161;-80
2022/01/28 03:03:18;;;;;;;8.97;1.70;;;;;;;7.44;65.74;102034.06;4968144;28;96965;-79
2022/01/28 03:05:44;;;;;;;20.10;1.87;;;;;;;7.42;65.76;102056.41;4983448;28;97235;-79
2022/01/28 03:08:09;;;;;;;18.25;3.35;;;;;;;7.60;65.79;102077.00;4967921;28;100113;-79
2022/01/28 03:13:17;;;;;;;10.03;1.80;;;;;;;7.40;65.89;102053.31;4986778;28;97021;-80
2022/01/28 03:15:50;;;;;;;4.20;1.57;;;;;;;7.36;65.67;102060.88;4990296;28;97507;-79
2022/01/28 03:18:23;;;;;;;11.40;1.97;;;;;;;7.36;65.61;102074.56;4985287;28;97440;-80
2022/01/28 03:23:17;;;;;;;4.63;0.97;;;;;;;7.35;66.02;102083.22;4985875;28;97204;-79
2022/01/28 03:25:44;;;;;;;7.57;1.83;;;;;;;7.34;65.91;102087.91;4985246;28;98241;-80
2022/01/28 03:28:10;;;;;;;10.20;1.33;;;;;;;7.39;65.92;102111.25;4984647;28;96992;-80
2022/01/28 03:30:36;;;;;;;8.27;1.77;;;;;;;7.41;65.86;102103.38;4967878;28;99984;-79
2022/01/28 03:33:01;;;;;;;4.60;1.60;;;;;;;7.39;65.48;102113.97;4967888;28;114942;-80
2022/01/28 03:35:26;;;;;;;9.20;1.70;;;;;;;7.35;66.09;102096.91;4982789;28;115374;-79
2022/01/28 03:38:02;;;;;;;6.43;1.97;;;;;;;7.30;65.84;102113.84;4983086;28;97018;-79
2022/01/28 03:40:31;;;;;;;11.53;1.80;;;;;;;7.29;65.66;102090.44;4981394;28;97779;-79
2022/01/28 03:42:56;;;;;;;4.13;1.57;;;;;;;7.26;65.78;102097.53;4969005;28;100392;-79
2022/01/28 03:45:21;;;;;;;11.00;1.67;;;;;;;7.26;65.96;102107.72;4979882;28;115647;-80
2022/01/28 03:47:46;;;;;;;5.97;1.60;;;;;;;7.24;65.61;102099.16;4986196;28;119356;-79
2022/01/28 03:50:12;;;;;;;4.93;1.50;;;;;;;7.22;65.80;102110.56;4970495;28;125912;-78
2022/01/28 03:52:37;;;;;;;10.20;1.90;;;;;;;7.25;65.66;102112.41;4986983;28;97193;-79
2022/01/28 03:55:03;;;;;;;7.70;1.27;;;;;;;7.22;65.69;102107.81;4969533;28;96943;-79
2022/01/28 03:57:28;;;;;;;10.60;1.33;;;;;;;7.27;65.85;102123.69;4991116;28;98132;-80
2022/01/28 03:59:54;;;;;;;8.30;1.90;;;;;;;7.30;65.98;102122.84;4990990;28;96992;-80
2022/01/28 04:02:23;;;;;;;5.30;1.47;;;;;;;7.32;66.08;102122.38;4973163;28;96566;-80
2022/01/28 04:12:55;;;;;;;10.77;1.40;;;;;;;7.29;65.67;102162.38;4983554;28;97050;-80
2022/01/28 04:15:37;;;;;;;10.73;2.17;;;;;;;7.31;65.65;102157.22;4962074;28;97160;-79
2022/01/28 04:18:03;;;;;;;11.20;1.70;;;;;;;7.29;65.59;102156.91;4987784;28;99302;-80
2022/01/28 04:20:30;;;;;;;7.03;1.63;;;;;;;7.25;65.97;102171.88;4968833;28;99836;-79
2022/01/28 04:22:56;;;;;;;8.53;1.60;;;;;;;7.22;65.93;102159.81;4960495;28;97061;-78
2022/01/28 04:25:21;;;;;;;7.77;2.10;;;;;;;7.25;65.76;102169.16;4983892;28;96859;-79
2022/01/28 04:27:46;;;;;;;12.63;1.87;;;;;;;7.26;66.07;102184.34;4965348;28;125844;-78
2022/01/28 04:30:12;;;;;;;7.13;2.33;;;;;;;7.30;65.69;102185.03;4986421;28;124514;-80
2022/01/28 04:32:39;;;;;;;8.13;1.70;;;;;;;7.31;65.95;102176.41;4966755;28;98185;-79
2022/01/28 04:35:05;;;;;;;9.77;3.00;;;;;;;7.32;65.93;102175.19;4992017;28;96974;-79
2022/01/28 04:37:44;;;;;;;15.00;2.00;;;;;;;7.33;65.92;102184.94;4989223;28;97807;-81
2022/01/28 04:42:55;;;;;;;8.20;1.83;;;;;;;7.38;65.97;102194.59;4987718;28;97508;-80
2022/01/28 04:45:36;;;;;;;14.23;1.93;;;;;;;7.39;65.82;102210.59;4982738;28;97681;-78
2022/01/28 04:50:55;;;;;;;7.23;1.50;;;;;;;7.38;65.88;102230.94;4978273;28;101269;-80
2022/01/28 04:53:41;;;;;;;13.23;2.50;;;;;;;7.23;66.02;102251.66;4965903;28;97447;-80
2022/01/28 05:06:39;;;;;;;9.70;2.40;;;;;;;7.25;66.38;102292.31;4983058;28;96810;-79
2022/01/28 05:27:05;;;;;;;9.23;1.40;;;;;;;7.06;66.64;102274.78;4982412;28;97265;-80
2022/01/28 05:29:31;;;;;;;6.90;2.00;;;;;;;7.03;66.59;102283.88;4978945;28;97376;-80
2022/01/28 05:31:57;;;;;;;7.27;1.60;;;;;;;7.04;66.37;102273.66;4982142;28;97254;-79
2022/01/28 05:34:25;;;;;;;6.80;1.50;;;;;;;7.00;66.49;102279.25;4980181;28;98164;-80
2022/01/28 05:36:51;;;;;;;7.60;1.90;;;;;;;6.95;66.42;102276.22;4983788;28;97497;-81
2022/01/28 05:39:17;;;;;;;3.27;1.30;;;;;;;6.92;66.76;102296.25;4962053;28;104036;-79
2022/01/28 05:41:43;;;;;;;4.90;1.37;;;;;;;6.90;66.74;102293.94;4962970;28;98991;-80
2022/01/28 05:44:09;;;;;;;5.20;1.23;;;;;;;6.90;66.61;102293.94;4964359;28;117241;-80
2022/01/28 05:46:34;;;;;;;5.40;1.37;;;;;;;6.92;66.89;102307.19;4962487;28;97509;-81
2022/01/28 05:48:59;;;;;;;6.73;1.27;;;;;;;6.93;66.71;102295.81;4962801;28;115080;-80
2022/01/28 05:51:25;;;;;;;7.40;1.30;;;;;;;6.92;66.99;102324.38;4959178;28;127358;-80
2022/01/28 05:53:51;;;;;;;5.67;1.10;;;;;;;6.92;66.63;102307.19;4978441;28;96939;-80
2022/01/28 05:56:16;;;;;;;4.80;1.27;;;;;;;6.87;66.87;102310.44;4979898;28;97671;-79
2022/01/28 05:58:41;;;;;;;6.77;1.00;;;;;;;6.87;66.96;102332.31;4956898;28;99585;-81
2022/01/28 06:01:07;;;;;;;7.90;1.43;;;;;;;6.86;66.55;102331.53;4961479;28;99091;-80
2022/01/28 06:03:32;;;;;;;9.03;1.67;;;;;;;6.86;66.85;102326.06;4961470;28;117050;-79
2022/01/28 06:05:57;;;;;;;8.37;1.67;;;;;;;6.82;66.62;102328.13;4978333;28;108516;-79
2022/01/28 06:08:23;;;;;;;7.27;1.13;;;;;;;6.81;66.96;102351.97;4961750;28;121266;-79
2022/01/28 06:10:48;;;;;;;4.90;1.50;;;;;;;6.82;66.96;102339.06;4965281;28;105760;-83
2022/01/28 06:13:13;;;;;;;11.17;1.30;;;;;;;6.79;66.87;102324.25;4962093;28;97871;-80
2022/01/28 06:15:40;;;;;;;8.60;1.53;;;;;;;6.84;66.78;102327.72;4966804;28;96835;-80
2022/01/28 06:18:06;;;;;;;4.50;1.10;;;;;;;6.82;66.68;102336.31;4979917;28;99820;-81
2022/01/28 06:20:31;;;;;;;11.43;1.40;;;;;;;6.79;66.83;102346.16;4962673;28;104303;-80
2022/01/28 06:22:57;;;;;;;5.40;1.20;;;;;;;6.84;66.98;102355.81;4962516;28;116659;-81
2022/01/28 06:25:22;;;;;;;12.80;1.73;;;;;;;6.86;66.86;102363.63;4977318;28;98098;-80
2022/01/28 06:27:48;;;;;;;8.93;1.93;;;;;;;6.82;66.79;102364.47;4981743;28;97776;-80
2022/01/28 06:30:13;;;;;;;5.17;1.53;;;;;;;6.79;67.03;102359.81;4981371;28;99426;-81
2022/01/28 06:32:39;;;;;;;7.23;1.20;;;;;;;6.84;66.92;102372.22;4979816;28;97096;-78
2022/01/28 06:35:08;;;;;;;4.97;1.83;;;;;;;6.82;66.80;102372.66;4979567;28;97444;-80
2022/01/28 06:37:37;;;;;;;4.00;1.13;;;;;;;6.87;66.85;102376.09;4960597;28;99924;-81
2022/01/28 06:40:05;;;;;;;9.40;2.07;;;;;;;6.87;66.98;102381.56;4958622;28;99946;-81
2022/01/28 06:42:31;;;;;;;7.93;1.73;;;;;;;6.88;66.92;102389.34;4982849;28;97241;-79
2022/01/28 06:44:56;;;;;;;10.03;1.40;;;;;;;6.87;66.86;102403.44;4981893;28;97052;-81
2022/01/28 06:47:21;;;;;;;11.60;1.50;;;;;;;6.84;66.78;102413.25;4966919;28;127320;-80
2022/01/28 06:49:47;;;;;;;9.60;1.20;;;;;;;6.83;66.98;102395.31;4981319;28;98005;-80
2022/01/28 06:52:12;;;;;;;12.13;1.73;;;;;;;6.83;66.82;102400.78;4965059;28;109068;-83
2022/01/28 06:54:37;;;;;;;7.20;1.60;;;;;;;6.73;66.99;102415.44;4987062;28;117220;-79
2022/01/28 06:57:03;;;;;;;4.30;1.60;;;;;;;6.87;66.84;102408.91;4962407;28;117756;-79
2022/01/28 06:59:28;;;;;;;10.73;2.13;;;;;;;6.89;67.06;102409.25;4965755;28;101334;-81
2022/01/28 07:01:53;;;;;;;8.40;1.60;;;;;;;6.90;66.87;102425.28;4981969;28;115807;-81
2022/01/28 07:04:19;;;;;;;8.23;1.40;;;;;;;6.91;67.19;102418.59;4985949;28;97277;-80
2022/01/28 07:06:46;;;;;;;4.93;1.20;;;;;;;6.87;66.86;102420.63;4966375;28;100126;-82
2022/01/28 07:09:11;;;;;;;6.07;1.60;;;;;;;6.90;66.88;102402.63;4966408;28;99069;-81
2022/01/28 07:11:36;;;;;;;13.07;2.03;;;;;;;6.85;66.80;102420.28;4982181;28;103105;-80
2022/01/28 07:14:01;;;;;;;5.57;1.77;;;;;;;6.85;66.58;102409.34;4964681;28;111466;-80
2022/01/28 07:16:27;;;;;;;6.23;1.40;;;;;;;6.84;66.67;102423.47;4964996;28;101936;-80
2022/01/28 07:18:52;;;;;;;9.87;2.00;;;;;;;6.74;66.63;102425.22;4965709;28;104190;-80
2022/01/28 07:21:17;;;;;;;8.60;1.70;;;;;;;6.70;66.87;102441.72;4966280;28;101921;-81
2022/01/28 07:23:43;;;;;;;9.90;1.97;;;;;;;6.67;66.97;102431.59;4982333;28;97472;-81
2022/01/28 07:26:08;;;;;;;8.97;2.17;;;;;;;6.67;66.62;102452.69;4964812;28;127519;-81
2022/01/28 07:28:35;;;;;;;11.90;2.20;;;;;;;6.69;66.73;102453.06;4967945;28;113116;-80
2022/01/28 07:31:00;;;;;;;9.37;2.07;;;;;;;6.69;66.89;102447.59;4967911;28;97297;-81
2022/01/28 07:33:26;;;;;;;8.27;1.90;;;;;;;6.67;66.81;102461.69;4984195;28;96943;-82
2022/01/28 07:35:51;;;;;;;21.77;3.80;;;;;;;6.67;66.70;102447.22;4963620;28;99773;-80
2022/01/28 07:38:16;;;;;;;15.47;2.20;;;;;;;6.70;66.78;102446.41;4980843;28;111935;-82
2022/01/28 07:40:41;;;;;;;7.37;1.40;;;;;;;6.74;66.69;102460.78;4986618;28;97289;-81
2022/01/28 07:43:07;;;;;;;11.83;1.70;;;;;;;6.72;66.80;102460.44;4981016;28;110857;-80
2022/01/28 07:45:32;;;;;;;14.47;1.93;;;;;;;6.69;66.62;102472.97;4983631;28;96816;-82
2022/01/28 07:47:57;;;;;;;10.17;2.17;;;;;;;6.71;66.76;102483.47;4984780;28;123848;-80
2022/01/28 07:50:23;;;;;;;19.63;1.80;;;;;;;6.68;66.50;102476.13;4964981;28;102265;-81
2022/01/28 07:52:48;;;;;;;5.20;1.77;;;;;;;6.69;66.93;102474.94;4984710;28;111016;-81
2022/01/28 07:55:14;;;;;;;12.37;2.40;;;;;;;6.70;66.60;102482.72;4963736;28;99072;-81
2022/01/28 07:57:41;;;;;;;4.77;1.20;;;;;;;6.77;66.41;102498.22;4979692;28;98006;-80
2022/01/28 08:00:09;;;;;;;9.17;1.63;;;;;;;6.80;66.46;102483.69;4965900;28;96825;-80
2022/01/28 08:02:34;;;;;;;13.17;2.33;;;;;;;6.84;66.36;102489.13;4966080;28;96840;-80
2022/01/28 08:05:00;;;;;;;10.37;1.80;;;;;;;6.88;66.37;102495.28;4966484;28;99474;-80
2022/01/28 08:07:26;;;;;;;7.27;1.80;;;;;;;6.92;66.64;102504.19;4982494;28;97360;-81
2022/01/28 08:09:51;;;;;;;15.23;3.50;;;;;;;6.94;66.33;102507.28;4965709;28;102871;-78
2022/01/28 08:12:17;;;;;;;11.23;2.40;;;;;;;6.98;66.09;102511.47;4985872;28;100609;-80
2022/01/28 08:14:42;;;;;;;11.73;2.20;;;;;;;6.99;66.42;102509.53;4967717;28;100419;-82
2022/01/28 08:17:08;;;;;;;13.80;2.10;;;;;;;7.00;66.28;102522.00;4967638;28;99606;-80
2022/01/28 08:19:33;;;;;;;11.47;2.20;;;;;;;7.00;66.15;102516.53;4984709;28;98029;-80
2022/01/28 08:21:58;;;;;;;5.80;1.87;;;;;;;7.00;66.21;102530.22;4964719;28;118209;-82
2022/01/28 08:24:24;;;;;;;10.63;1.90;;;;;;;7.00;66.40;102543.88;4968605;28;99512;-80
2022/01/28 08:26:49;;;;;;;7.13;2.10;;;;;;;7.01;66.22;102548.94;4983160;28;115185;-81
2022/01/28 08:29:14;;;;;;;12.00;2.00;;;;;;;7.09;66.18;102544.88;4983384;28;96876;-82
2022/01/28 08:31:40;;;;;;;15.20;2.13;;;;;;;7.14;65.91;102547.09;4981797;28;99191;-80
2022/01/28 08:34:06;;;;;;;9.23;1.53;;;;;;;7.19;66.04;102556.78;4984323;28;97353;-81
2022/01/28 08:36:33;;;;;;;7.00;1.80;;;;;;;7.24;65.81;102557.09;4965534;28;99040;-81
2022/01/28 08:38:59;;;;;;;11.07;2.10;;;;;;;7.32;65.87;102555.72;4966601;28;97553;-82
2022/01/28 08:41:24;;;;;;;10.97;2.00;;;;;;;7.40;65.96;102579.03;4980636;28;97911;-80
2022/01/28 08:43:51;;;;;;;8.73;1.97;;;;;;;7.48;65.94;102579.66;4983713;28;96735;-81
2022/01/28 08:46:17;;;;;;;16.60;2.63;;;;;;;7.48;65.53;102585.91;4965972;28;99532;-80
2022/01/28 08:48:42;;;;;;;19.33;2.43;;;;;;;7.48;65.48;102585.91;4967903;28;98298;-80
2022/01/28 08:51:07;;;;;;;14.67;2.20;;;;;;;7.48;65.64;102588.66;4985719;28;98798;-80
2022/01/28 08:53:33;;;;;;;11.93;2.13;;;;;;;7.52;65.47;102610.47;4964374;28;116858;-80
2022/01/28 08:55:59;;;;;;;12.07;3.00;;;;;;;7.56;65.45;102600.22;4969323;28;99972;-82
2022/01/28 08:58:24;;;;;;;9.50;1.97;;;;;;;7.58;65.03;102623.25;4984922;28;97755;-80
2022/01/28 09:00:51;;;;;;;12.50;2.43;;;;;;;7.61;65.41;102631.81;4968385;28;97636;-81
2022/01/28 09:03:18;;;;;;;6.90;2.07;;;;;;;7.67;65.16;102624.63;4967231;28;100227;-80
2022/01/28 09:05:44;;;;;;;11.30;2.03;;;;;;;7.73;65.47;102631.97;4964615;28;100483;-82
2022/01/28 09:08:09;;;;;;;15.43;3.03;;;;;;;7.70;65.26;102654.72;4984357;28;97197;-80
2022/01/28 09:10:41;;;;;;;9.70;1.67;;;;;;;7.83;65.46;102638.38;4968204;28;97349;-80
2022/01/28 09:15:40;;;;;;;7.10;2.57;;;;;;;8.06;64.83;102641.03;4989499;28;97219;-82
2022/01/28 09:18:09;;;;;;;11.00;1.80;;;;;;;8.10;65.06;102649.94;4988529;28;98254;-80
2022/01/28 09:20:36;;;;;;;20.97;2.97;;;;;;;8.09;64.64;102646.41;4967763;28;97463;-81
2022/01/28 09:23:02;;;;;;;19.43;2.57;;;;;;;8.12;65.00;102655.75;4967457;28;100550;-82
2022/01/28 09:25:28;;;;;;;8.50;2.10;;;;;;;8.17;64.87;102666.19;4985686;28;98943;-80
2022/01/28 09:27:54;;;;;;;16.70;2.67;;;;;;;8.24;64.51;102679.75;4965811;28;96781;-80
2022/01/28 09:30:19;;;;;;;11.70;2.30;;;;;;;8.30;64.55;102683.56;4984131;28;97119;-80
2022/01/28 09:32:45;;;;;;;10.43;2.00;;;;;;;8.35;64.50;102677.56;4966233;28;99575;-80
2022/01/28 09:35:10;;;;;;;9.37;1.97;;;;;;;8.35;64.44;102671.31;4984342;28;97512;-82
2022/01/28 09:37:36;;;;;;;8.93;2.00;;;;;;;8.44;64.49;102691.47;4965832;28;97249;-80
2022/01/28 09:40:03;;;;;;;14.63;2.00;;;;;;;8.50;64.22;102683.47;4963504;28;102699;-80
2022/01/28 09:42:31;;;;;;;10.20;2.03;;;;;;;8.49;64.06;102682.75;4983651;28;102198;-82
2022/01/28 09:44:59;;;;;;;7.40;2.20;;;;;;;8.58;64.35;102699.38;4966792;28;98618;-80
2022/01/28 09:47:25;;;;;;;12.80;2.67;;;;;;;8.64;64.21;102694.91;4965447;28;97596;-80
2022/01/28 09:49:51;;;;;;;14.10;2.20;;;;;;;8.69;63.81;102697.13;5003457;28;96563;-83
2022/01/28 09:52:16;;;;;;;8.30;2.30;;;;;;;8.70;63.96;102706.91;4997038;28;97786;-83
2022/01/28 09:54:46;;;;;;;14.70;2.73;;;;;;;8.64;61.78;102711.38;4981607;28;98731;-83
2022/01/28 09:57:16;;;;;;;8.13;2.33;;;;;;;8.64;63.77;102719.59;4961913;28;96503;-82
2022/01/28 09:59:41;;;;;;;12.20;2.13;;;;;;;8.64;63.56;102727.06;4982499;28;97412;-83
2022/01/28 10:02:07;;;;;;;13.30;2.07;;;;;;;8.60;63.17;102724.41;4985276;28;96910;-81
2022/01/28 10:04:33;;;;;;;14.50;2.80;;;;;;;8.60;62.80;102726.38;4981621;28;99823;-81
2022/01/28 10:06:58;;;;;;;11.13;1.60;;;;;;;8.56;62.80;102726.44;4983799;28;97026;-82
2022/01/28 10:09:24;;;;;;;7.97;1.73;;;;;;;8.56;63.31;102734.66;4982284;28;97224;-84
2022/01/28 10:11:53;;;;;;;9.50;1.70;;;;;;;8.53;62.20;102737.50;4966006;28;104334;-82
2022/01/28 10:14:23;;;;;;;19.03;2.73;;;;;;;8.51;62.40;102726.97;4963759;28;99077;-79
2022/01/28 10:16:59;;;;;;;11.63;1.93;;;;;;;8.57;57.93;102725.25;4969633;28;98003;-82
2022/01/28 10:19:37;;;;;;;14.03;2.90;;;;;;;8.58;58.00;102735.03;4984401;28;101367;-82
2022/01/28 10:22:15;;;;;;;11.23;1.80;;;;;;;8.65;62.10;102728.63;4966987;28;104201;-80
2022/01/28 10:24:40;;;;;;;14.67;2.30;;;;;;;8.69;62.23;102726.56;4984229;28;103457;-80
2022/01/28 10:27:07;;;;;;;9.23;1.80;;;;;;;8.75;61.90;102731.09;4981435;28;114778;-81
2022/01/28 10:29:35;;;;;;;11.00;2.20;;;;;;;8.81;61.89;102737.63;4963431;28;97264;-81
2022/01/28 10:32:11;;;;;;;10.73;2.60;;;;;;;8.69;58.57;102748.50;4967842;28;102173;-82
2022/01/28 10:34:44;;;;;;;11.03;2.70;;;;;;;8.61;59.28;102756.13;4938575;28;100439;-80
2022/01/28 10:37:14;;;;;;;26.30;2.67;;;;;;;8.65;60.79;102723.13;4972272;28;96973;-80
2022/01/28 10:39:44;;;;;;;14.57;2.23;;;;;;;8.71;59.61;102730.41;4969684;28;98287;-81
2022/01/28 10:42:12;;;;;;;11.13;1.90;;;;;;;8.71;60.80;102733.16;4946860;28;99019;-82
2022/01/28 10:44:55;;;;;;;9.87;2.00;;;;;;;8.78;59.93;102719.25;4966374;28;100897;-80
2022/01/28 10:47:57;;;;;;;12.37;2.17;;;;;;;8.78;59.08;102724.75;4963881;28;98253;-80
2022/01/28 10:50:34;;;;;;;5.77;1.90;;;;;;;8.83;59.19;102732.47;4964493;28;97261;-82
2022/01/28 10:53:19;;;;;;;12.03;2.80;;;;;;;8.81;59.65;102740.34;4966657;28;104504;-82
2022/01/28 10:55:53;;;;;;;15.17;2.20;;;;;;;8.85;59.98;102743.78;4982211;28;101826;-81
2022/01/28 10:58:24;;;;;;;7.13;2.33;;;;;;;8.86;60.38;102745.34;4980686;28;103720;-81
2022/01/28 11:00:59;;;;;;;13.77;2.63;;;;;;;8.93;60.38;102741.66;4968308;28;97020;-80
2022/01/28 11:03:28;;;;;;;8.73;2.00;;;;;;;9.08;60.88;102737.34;4981906;28;97352;-83
2022/01/28 11:05:58;;;;;;;9.80;2.10;;;;;;;9.19;60.68;102781.00;4961012;28;98960;-81
2022/01/28 11:08:25;;;;;;;12.87;2.40;;;;;;;9.22;60.03;102747.94;4986458;28;97293;-80
2022/01/28 11:10:51;;;;;;;9.90;2.03;;;;;;;9.27;59.96;102749.41;4983373;28;97234;-80
2022/01/28 11:13:17;;;;;;;23.33;3.10;;;;;;;9.28;59.48;102762.72;4980648;28;96954;-82
2022/01/28 11:15:43;;;;;;;10.20;2.70;;;;;;;9.37;59.74;102742.88;4965963;28;98416;-82
2022/01/28 11:18:09;;;;;;;13.70;2.33;;;;;;;9.38;58.40;102755.41;4966393;28;97091;-80
2022/01/28 11:20:53;;;;;;;20.30;3.13;;;;;;;9.38;57.52;102747.16;4962226;28;97253;-81
2022/01/28 11:23:37;;;;;;;10.73;2.73;;;;;;;9.44;54.72;102753.66;4982762;28;97226;-79
2022/01/28 11:26:05;;;;;;;8.93;2.33;;;;;;;9.56;58.48;102759.22;4980059;28;101896;-80
2022/01/28 11:29:02;;;;;;;11.30;2.10;;;;;;;9.62;54.13;102753.97;4961014;28;97839;-80
2022/01/28 11:31:48;;;;;;;12.93;2.93;;;;;;;9.69;56.05;102759.28;4963627;28;97864;-81
2022/01/28 11:34:32;;;;;;;11.90;2.57;;;;;;;9.77;57.45;102764.13;4967232;28;104985;-79
2022/01/28 11:37:18;;;;;;;8.90;2.00;;;;;;;9.88;59.05;102741.06;4981324;28;101377;-79
2022/01/28 11:39:47;;;;;;;9.63;2.53;;;;;;;9.94;58.67;102753.09;4984997;28;97312;-81
2022/01/28 11:42:26;;;;;;;10.57;1.73;;;;;;;9.97;54.59;102758.47;4987599;28;104400;-80
2022/01/28 11:44:55;;;;;;;8.70;2.40;;;;;;;10.04;59.09;102766.53;4964616;28;102313;-80
2022/01/28 11:47:30;;;;;;;9.60;1.47;;;;;;;10.20;55.21;102776.72;4983479;28;101434;-81
2022/01/28 11:50:08;;;;;;;8.77;1.53;;;;;;;10.27;58.49;102771.75;4956801;28;97796;-81
2022/01/28 11:52:47;;;;;;;15.33;1.87;;;;;;;10.28;56.43;102775.28;4982272;28;96970;-82
2022/01/28 11:55:20;;;;;;;12.03;2.00;;;;;;;10.35;57.63;102778.59;4984547;28;110649;-80
2022/01/28 11:58:01;;;;;;;9.97;2.20;;;;;;;10.40;57.17;102785.53;4969286;28;100586;-80
2022/01/28 12:00:44;;;;;;;11.40;2.60;;;;;;;10.55;55.69;102797.63;4980474;28;97503;-81
2022/01/28 12:03:23;;;;;;;16.70;2.33;;;;;;;10.67;56.37;102804.38;4965235;28;98675;-80
2022/01/28 12:05:49;;;;;;;10.33;1.80;;;;;;;10.87;57.78;102807.69;4982929;28;122952;-80
2022/01/28 12:08:17;;;;;;;10.37;1.87;;;;;;;10.72;55.85;102801.06;4983289;28;98560;-80
2022/01/28 12:10:45;;;;;;;9.87;2.47;;;;;;;10.73;54.50;102792.38;4983781;28;96897;-81
2022/01/28 12:13:15;;;;;;;17.07;2.63;;;;;;;10.64;55.27;102794.25;4967323;28;97005;-80
2022/01/28 12:16:04;;;;;;;5.37;1.73;;;;;;;10.80;50.92;102805.91;4965388;28;99636;-79
2022/01/28 12:18:45;;;;;;;14.90;2.30;;;;;;;10.90;52.09;102817.81;4965092;28;105385;-79
2022/01/28 12:21:16;;;;;;;10.70;2.27;;;;;;;10.88;55.02;102826.50;4984974;28;97077;-80
2022/01/28 12:23:41;;;;;;;9.93;1.90;;;;;;;10.77;56.13;102817.81;4961585;28;97618;-80
2022/01/28 12:26:07;;;;;;;6.70;1.50;;;;;;;10.79;56.37;102812.63;4965412;28;99147;-80
2022/01/28 12:28:32;;;;;;;13.37;2.40;;;;;;;10.74;55.86;102804.16;4983487;28;97276;-80
2022/01/28 12:31:02;;;;;;;6.90;1.80;;;;;;;10.65;55.77;102799.31;4982926;28;102456;-81
2022/01/28 12:33:29;;;;;;;11.23;2.20;;;;;;;10.49;56.13;102791.94;4961492;28;106875;-81
2022/01/28 12:35:57;;;;;;;10.20;2.33;;;;;;;10.35;56.49;102795.09;4983097;28;98324;-80
2022/01/28 12:38:28;;;;;;;9.03;2.00;;;;;;;10.31;56.61;102816.44;4964637;28;99451;-80
2022/01/28 12:40:54;;;;;;;6.97;1.63;;;;;;;10.30;56.97;102801.16;4967146;28;97698;-79
2022/01/28 12:43:22;;;;;;;8.50;2.77;;;;;;;10.12;55.14;102786.34;4981393;28;96956;-80
2022/01/28 12:46:12;;;;;;;14.07;2.27;;;;;;;10.23;55.23;102795.84;4966814;28;99756;-80
2022/01/28 12:48:50;;;;;;;10.37;2.73;;;;;;;10.41;55.57;102784.31;4964837;28;100269;-80
2022/01/28 12:51:16;;;;;;;4.83;1.63;;;;;;;10.51;56.25;102797.75;4982229;28;98884;-79
2022/01/28 12:53:44;;;;;;;11.33;1.73;;;;;;;10.53;56.42;102783.56;4984898;28;96941;-81
2022/01/28 12:56:12;;;;;;;4.30;1.60;;;;;;;10.54;56.57;102785.88;4980922;28;97397;-80